createdAt,value
2023-03-31T00:00:46.201Z,1.30
2023-03-31T00:03:13.804Z,1.27
2023-03-31T00:05:41.299Z,1.90
2023-03-31T00:08:08.840Z,1.57
2023-03-31T00:10:36.366Z,1.63
2023-03-31T00:13:03.966Z,0.83
2023-03-31T00:15:31.482Z,1.50
2023-03-31T00:17:59.090Z,1.10
2023-03-31T00:20:26.559Z,1.70
2023-03-31T00:22:54.103Z,1.87
2023-03-31T00:25:21.662Z,1.67
2023-03-31T00:27:49.220Z,1.20
2023-03-31T00:30:16.785Z,1.20
2023-03-31T00:32:44.284Z,1.67
2023-03-31T00:35:11.834Z,1.53
2023-03-31T00:37:39.392Z,1.50
2023-03-31T00:40:06.922Z,1.27
2023-03-31T00:42:34.535Z,1.40
2023-03-31T00:45:07.821Z,1.67
2023-03-31T00:47:35.387Z,1.60
2023-03-31T00:50:02.934Z,1.90
2023-03-31T00:52:33.090Z,1.40
2023-03-31T00:55:00.616Z,2.20
2023-03-31T00:57:28.188Z,1.60
2023-03-31T00:59:58.426Z,1.30
2023-03-31T01:02:26.021Z,1.70
2023-03-31T01:04:53.798Z,2.03
2023-03-31T01:07:21.314Z,1.40
2023-03-31T01:09:48.874Z,1.70
2023-03-31T01:12:16.498Z,1.80
2023-03-31T01:14:44.025Z,2.00
2023-03-31T01:17:11.632Z,1.90
2023-03-31T01:20:12.111Z,1.40
2023-03-31T01:22:54.455Z,2.37
2023-03-31T01:25:27.660Z,1.40
2023-03-31T01:27:55.196Z,2.00
2023-03-31T01:30:40.830Z,1.53
2023-03-31T01:33:23.169Z,2.22
2023-03-31T01:35:56.434Z,2.13
2023-03-31T01:39:00.315Z,2.42
2023-03-31T01:41:51.783Z,1.47
2023-03-31T01:44:31.331Z,1.83
2023-03-31T01:47:01.792Z,1.70
2023-03-31T01:49:35.429Z,1.90
2023-03-31T01:52:15.007Z,1.70
2023-03-31T01:54:48.383Z,1.70
2023-03-31T01:57:15.968Z,1.50
2023-03-31T01:59:57.953Z,1.30
2023-03-31T02:02:28.554Z,1.20
2023-03-31T02:04:58.724Z,1.63
2023-03-31T02:07:34.993Z,2.03
2023-03-31T02:10:02.557Z,1.90
2023-03-31T02:12:30.083Z,1.40
2023-03-31T02:14:57.704Z,1.73
2023-03-31T02:17:25.297Z,1.70
2023-03-31T02:19:52.773Z,1.20
2023-03-31T02:22:20.338Z,1.33
2023-03-31T02:24:47.853Z,1.60
2023-03-31T02:27:23.804Z,1.03
2023-03-31T02:29:51.350Z,1.77
2023-03-31T02:32:36.519Z,1.60
2023-03-31T02:35:04.063Z,1.47
2023-03-31T02:37:31.606Z,1.80
2023-03-31T02:39:59.145Z,1.73
2023-03-31T02:42:26.689Z,1.53
2023-03-31T02:44:54.233Z,1.30
2023-03-31T02:47:21.792Z,1.40
2023-03-31T02:49:49.313Z,1.65
2023-03-31T02:52:28.850Z,1.60
2023-03-31T02:55:20.052Z,1.70
2023-03-31T02:57:59.070Z,2.20
2023-03-31T03:00:29.580Z,2.15
2023-03-31T03:03:00.068Z,1.73
2023-03-31T03:05:51.347Z,2.40
2023-03-31T03:08:18.879Z,1.50
2023-03-31T03:10:55.183Z,1.97
2023-03-31T03:13:28.558Z,1.57
2023-03-31T03:16:05.290Z,1.70
2023-03-31T03:18:32.656Z,2.08
2023-03-31T03:21:00.179Z,2.17
2023-03-31T03:23:27.733Z,1.70
2023-03-31T03:25:55.273Z,1.60
2023-03-31T03:28:22.806Z,2.00
2023-03-31T03:30:50.385Z,1.50
2023-03-31T03:33:17.964Z,1.27
2023-03-31T03:35:45.455Z,1.40
2023-03-31T03:38:13.007Z,1.27
2023-03-31T03:40:40.581Z,1.73
2023-03-31T03:43:08.116Z,1.57
2023-03-31T03:45:35.659Z,2.00
2023-03-31T03:48:03.302Z,1.63
2023-03-31T03:50:30.786Z,1.93
2023-03-31T03:52:58.303Z,1.40
2023-03-31T03:55:25.880Z,1.50
2023-03-31T03:57:53.406Z,1.80
2023-03-31T04:00:20.931Z,2.07
2023-03-31T04:02:48.507Z,1.37
2023-03-31T04:05:16.120Z,1.47
2023-03-31T04:07:43.565Z,2.07
2023-03-31T04:10:11.129Z,2.22
2023-03-31T04:12:38.665Z,2.07
2023-03-31T04:15:06.258Z,1.73
2023-03-31T04:17:33.898Z,2.07
2023-03-31T04:20:01.379Z,1.97
2023-03-31T04:22:28.879Z,2.42
2023-03-31T04:24:56.458Z,2.57
2023-03-31T04:27:23.984Z,1.97
2023-03-31T04:29:51.514Z,2.20
2023-03-31T04:32:19.101Z,1.90
2023-03-31T04:34:46.626Z,1.80
2023-03-31T04:37:14.166Z,1.40
2023-03-31T04:39:41.739Z,2.20
2023-03-31T04:42:09.276Z,2.20
2023-03-31T04:44:36.804Z,1.47
2023-03-31T04:47:04.382Z,1.60
2023-03-31T04:49:31.926Z,1.27
2023-03-31T04:51:59.457Z,1.60
2023-03-31T04:54:27.065Z,1.50
2023-03-31T04:56:54.624Z,2.13
2023-03-31T04:59:22.109Z,2.13
2023-03-31T05:01:49.816Z,2.03
2023-03-31T05:04:18.474Z,2.37
2023-03-31T05:06:45.991Z,2.22
2023-03-31T05:09:13.591Z,2.03
2023-03-31T05:11:41.130Z,2.40
2023-03-31T05:14:08.639Z,1.90
2023-03-31T05:16:36.985Z,2.90
2023-03-31T05:19:04.481Z,2.23
2023-03-31T05:21:32.019Z,1.97
2023-03-31T05:23:59.829Z,3.40
2023-03-31T05:26:27.354Z,4.10
2023-03-31T05:28:54.901Z,3.43
2023-03-31T05:31:22.528Z,3.63
2023-03-31T05:33:50.033Z,3.83
2023-03-31T05:36:17.668Z,4.20
2023-03-31T05:38:45.139Z,4.83
2023-03-31T05:41:12.670Z,5.60
2023-03-31T05:43:40.260Z,4.10
2023-03-31T05:46:08.423Z,3.87
2023-03-31T05:48:35.285Z,3.07
2023-03-31T05:51:02.818Z,2.50
2023-03-31T05:53:30.391Z,2.67
2023-03-31T05:55:57.919Z,2.70
2023-03-31T05:58:25.443Z,1.97
2023-03-31T06:00:53.085Z,2.10
2023-03-31T06:03:20.582Z,1.87
2023-03-31T06:05:48.088Z,2.90
2023-03-31T06:08:15.880Z,2.27
2023-03-31T06:10:43.406Z,2.00
2023-03-31T06:13:10.929Z,2.17
2023-03-31T06:15:38.527Z,1.63
2023-03-31T06:18:06.067Z,2.20
2023-03-31T06:20:33.597Z,2.80
2023-03-31T06:23:01.889Z,1.80
2023-03-31T06:25:37.164Z,2.57
2023-03-31T06:27:56.945Z,1.77
2023-03-31T06:30:24.524Z,2.13
2023-03-31T06:32:52.107Z,2.30
2023-03-31T06:35:19.581Z,2.20
2023-03-31T06:37:47.162Z,2.37
2023-03-31T06:40:14.688Z,2.93
2023-03-31T06:42:42.220Z,3.47
2023-03-31T06:45:09.806Z,3.13
2023-03-31T06:47:39.988Z,2.90
2023-03-31T06:50:07.575Z,3.17
2023-03-31T06:52:35.146Z,3.23
2023-03-31T06:55:02.669Z,3.10
2023-03-31T06:57:30.221Z,2.80
2023-03-31T06:59:57.794Z,3.03
2023-03-31T07:02:25.370Z,3.37
2023-03-31T07:04:52.866Z,3.07
2023-03-31T07:07:20.482Z,2.43
2023-03-31T07:09:48.003Z,3.27
2023-03-31T07:12:15.548Z,3.00
2023-03-31T07:14:43.112Z,2.77
2023-03-31T07:17:10.658Z,3.00
2023-03-31T07:19:38.186Z,3.10
2023-03-31T07:22:05.799Z,2.97
2023-03-31T07:24:33.301Z,3.40
2023-03-31T07:27:00.835Z,3.30
2023-03-31T07:29:28.418Z,3.03
2023-03-31T07:31:55.985Z,3.53
2023-03-31T07:34:23.477Z,3.43
2023-03-31T07:36:51.091Z,3.17
2023-03-31T07:39:18.600Z,3.87
2023-03-31T07:41:46.151Z,3.07
2023-03-31T07:44:13.753Z,3.30
2023-03-31T07:46:41.375Z,2.87
2023-03-31T07:49:08.831Z,3.27
2023-03-31T07:51:36.406Z,3.77
2023-03-31T07:54:03.941Z,2.07
2023-03-31T07:56:31.482Z,2.40
2023-03-31T07:58:59.088Z,3.00
2023-03-31T08:01:26.628Z,2.40
2023-03-31T08:03:54.190Z,2.40
2023-03-31T08:06:21.714Z,2.93
2023-03-31T08:08:49.241Z,2.97
2023-03-31T08:11:16.778Z,3.87
2023-03-31T08:13:44.369Z,3.43
2023-03-31T08:16:11.925Z,2.97
2023-03-31T08:18:39.459Z,3.20
2023-03-31T08:21:07.198Z,3.27
2023-03-31T08:23:34.598Z,3.43
2023-03-31T08:26:19.565Z,3.00
2023-03-31T08:28:47.080Z,2.47
2023-03-31T08:31:14.643Z,2.50
2023-03-31T08:33:42.197Z,2.20
2023-03-31T08:36:09.894Z,3.50
2023-03-31T08:38:40.144Z,2.60
2023-03-31T08:41:13.176Z,3.17
2023-03-31T08:43:43.671Z,3.30
2023-03-31T08:46:11.319Z,3.53
2023-03-31T08:48:38.772Z,2.73
2023-03-31T08:51:09.012Z,3.57
2023-03-31T08:53:41.879Z,2.87
2023-03-31T08:56:09.438Z,3.17
2023-03-31T08:58:36.995Z,3.07
2023-03-31T09:01:13.015Z,3.77
2023-03-31T09:04:06.505Z,4.20
2023-03-31T09:06:43.836Z,3.87
2023-03-31T09:09:11.430Z,4.78
2023-03-31T09:11:47.698Z,4.47
2023-03-31T09:14:36.427Z,4.53
2023-03-31T09:17:07.300Z,3.93
2023-03-31T09:19:37.147Z,4.03
2023-03-31T09:22:04.729Z,4.55
2023-03-31T09:24:32.906Z,3.30
2023-03-31T09:26:59.811Z,4.20
2023-03-31T09:29:48.414Z,3.77
2023-03-31T09:32:15.950Z,3.37
2023-03-31T09:34:43.479Z,3.17
2023-03-31T09:37:13.908Z,2.70
2023-03-31T09:39:41.455Z,3.33
2023-03-31T09:42:09.013Z,3.07
2023-03-31T09:44:45.336Z,4.30
2023-03-31T09:47:18.467Z,4.03
2023-03-31T09:49:54.101Z,4.35
2023-03-31T09:52:16.018Z,3.33
2023-03-31T09:54:48.938Z,3.50
2023-03-31T09:57:16.530Z,3.37
2023-03-31T09:59:44.101Z,3.67
2023-03-31T10:02:35.497Z,2.77
2023-03-31T10:05:03.049Z,3.47
2023-03-31T10:07:30.576Z,3.20
2023-03-31T10:09:58.112Z,2.67
2023-03-31T10:12:31.163Z,3.30
2023-03-31T10:15:04.445Z,2.20
2023-03-31T10:17:40.617Z,4.07
2023-03-31T10:19:59.584Z,2.53
2023-03-31T10:22:30.001Z,2.70
2023-03-31T10:24:57.531Z,3.23
2023-03-31T10:27:25.096Z,2.63
2023-03-31T10:29:52.649Z,2.63
2023-03-31T10:32:32.127Z,2.77
2023-03-31T10:35:05.233Z,2.63
2023-03-31T10:37:32.756Z,3.43
2023-03-31T10:40:06.385Z,3.30
2023-03-31T10:42:33.933Z,3.50
2023-03-31T10:45:37.337Z,2.53
2023-03-31T10:47:56.554Z,3.62
2023-03-31T10:50:27.005Z,2.67
2023-03-31T10:52:54.598Z,2.00
2023-03-31T10:55:22.134Z,2.27
2023-03-31T10:58:04.257Z,2.30
2023-03-31T11:00:55.572Z,2.40
2023-03-31T11:03:56.411Z,2.60
2023-03-31T11:06:35.619Z,2.93
2023-03-31T11:09:24.323Z,2.20
2023-03-31T11:11:57.336Z,2.67
2023-03-31T11:14:49.058Z,2.43
2023-03-31T11:17:37.484Z,2.03
2023-03-31T11:20:19.904Z,2.47
2023-03-31T11:22:52.858Z,1.73
2023-03-31T11:25:29.192Z,1.87
2023-03-31T11:28:18.000Z,1.70
2023-03-31T11:30:47.963Z,2.20
2023-03-31T11:33:45.197Z,3.40
2023-03-31T11:36:15.792Z,2.13
2023-03-31T11:38:51.856Z,2.37
2023-03-31T11:41:28.171Z,2.07
2023-03-31T11:44:01.310Z,2.63
2023-03-31T11:46:28.900Z,2.00
2023-03-31T11:49:01.775Z,2.10
2023-03-31T11:51:56.455Z,1.43
2023-03-31T11:54:26.783Z,1.47
2023-03-31T11:56:54.330Z,1.63
2023-03-31T11:59:21.858Z,1.77
2023-03-31T12:01:51.916Z,1.90
2023-03-31T12:04:19.451Z,2.33
2023-03-31T12:06:46.988Z,1.90
2023-03-31T12:09:32.524Z,2.15
2023-03-31T12:12:05.809Z,2.75
2023-03-31T12:14:42.033Z,2.13
2023-03-31T12:17:12.420Z,1.63
2023-03-31T12:19:45.623Z,1.63
2023-03-31T12:22:37.038Z,1.90
2023-03-31T12:25:04.625Z,2.10
2023-03-31T12:27:35.091Z,2.27
2023-03-31T12:30:02.619Z,1.97
2023-03-31T12:32:39.147Z,1.60
2023-03-31T12:35:24.679Z,1.93
2023-03-31T12:38:25.283Z,1.67
2023-03-31T12:41:04.385Z,2.17
2023-03-31T12:43:52.384Z,1.63
2023-03-31T12:46:56.106Z,1.53
2023-03-31T12:49:47.620Z,1.83
2023-03-31T12:52:21.086Z,1.77
2023-03-31T12:55:09.937Z,1.30
2023-03-31T12:57:37.443Z,1.20
2023-03-31T13:00:23.204Z,1.97
2023-03-31T13:02:50.832Z,1.77
2023-03-31T13:05:40.122Z,2.40
2023-03-31T13:08:10.235Z,1.33
2023-03-31T13:10:55.759Z,1.70
2023-03-31T13:13:23.161Z,1.77
2023-03-31T13:15:50.680Z,1.70
2023-03-31T13:18:18.255Z,1.20
2023-03-31T13:20:45.811Z,2.10
2023-03-31T13:23:21.958Z,1.67
2023-03-31T13:25:52.569Z,1.70
2023-03-31T13:28:22.848Z,1.70
2023-03-31T13:30:58.741Z,1.63
2023-03-31T13:33:35.222Z,1.77
2023-03-31T13:36:02.763Z,1.90
2023-03-31T13:38:41.899Z,2.67
2023-03-31T13:41:39.426Z,2.60
2023-03-31T13:44:10.045Z,1.60
2023-03-31T13:46:52.254Z,1.90
2023-03-31T13:49:43.797Z,1.73
2023-03-31T13:52:11.367Z,1.87
2023-03-31T13:55:02.592Z,2.07
2023-03-31T13:57:39.271Z,1.77
2023-03-31T14:00:30.997Z,1.70
2023-03-31T14:03:02.379Z,1.50
2023-03-31T14:05:29.778Z,1.30
2023-03-31T14:07:57.313Z,1.70
2023-03-31T14:10:27.683Z,1.67
2023-03-31T14:13:12.876Z,1.23
2023-03-31T14:15:58.346Z,1.77
2023-03-31T14:18:28.600Z,1.07
2023-03-31T14:20:58.538Z,1.20
2023-03-31T14:23:34.489Z,0.90
2023-03-31T14:26:10.577Z,1.40
2023-03-31T14:28:55.958Z,1.37
2023-03-31T14:31:29.122Z,1.50
2023-03-31T14:34:24.067Z,1.10
2023-03-31T14:36:54.457Z,0.80
2023-03-31T14:39:21.971Z,1.30
2023-03-31T14:41:55.280Z,1.00
2023-03-31T14:44:22.824Z,1.37
2023-03-31T14:46:50.373Z,1.00
2023-03-31T14:49:29.696Z,0.80
2023-03-31T14:51:57.265Z,1.13
2023-03-31T14:54:24.754Z,0.83
2023-03-31T14:56:52.362Z,1.30
2023-03-31T14:59:25.533Z,1.30
2023-03-31T15:01:53.082Z,1.50
2023-03-31T15:04:25.904Z,1.40
2023-03-31T15:06:48.235Z,1.33
2023-03-31T15:09:24.243Z,1.45
2023-03-31T15:11:57.234Z,1.17
2023-03-31T15:14:24.782Z,1.23
2023-03-31T15:16:52.325Z,1.17
2023-03-31T15:19:22.554Z,1.60
2023-03-31T15:21:56.195Z,2.90
2023-03-31T15:24:23.746Z,3.20
2023-03-31T15:26:53.999Z,1.03
2023-03-31T15:29:24.063Z,1.80
2023-03-31T15:31:51.704Z,1.30
2023-03-31T15:34:22.028Z,1.57
2023-03-31T15:36:49.261Z,1.47
2023-03-31T15:39:16.792Z,2.00
2023-03-31T15:41:44.384Z,1.20
2023-03-31T15:44:29.895Z,1.20
2023-03-31T15:47:00.388Z,1.67
2023-03-31T15:49:27.922Z,1.70
2023-03-31T15:51:55.459Z,1.62
2023-03-31T15:54:37.628Z,1.40
2023-03-31T15:57:05.190Z,1.20
2023-03-31T15:59:41.763Z,1.00
2023-03-31T16:02:00.368Z,0.90
2023-03-31T16:04:30.529Z,1.10
2023-03-31T16:07:03.414Z,1.63
2023-03-31T16:09:46.081Z,1.03
2023-03-31T16:12:22.104Z,1.00
2023-03-31T16:14:52.051Z,1.23
2023-03-31T16:17:19.576Z,1.40
2023-03-31T16:19:47.129Z,1.10
2023-03-31T16:22:14.685Z,0.93
2023-03-31T16:24:42.222Z,1.30
2023-03-31T16:27:09.761Z,1.00
2023-03-31T16:29:37.365Z,1.03
2023-03-31T16:32:10.678Z,1.10
2023-03-31T16:34:52.712Z,0.90
2023-03-31T16:37:20.834Z,1.50
2023-03-31T16:39:48.269Z,1.40
2023-03-31T16:42:15.888Z,1.13
2023-03-31T16:44:43.626Z,1.30
2023-03-31T16:47:15.016Z,1.50
2023-03-31T16:49:38.545Z,1.37
2023-03-31T16:52:06.073Z,1.20
2023-03-31T16:54:33.604Z,1.75
2023-03-31T16:57:01.226Z,1.17
2023-03-31T16:59:28.706Z,1.80
2023-03-31T17:01:56.246Z,1.27
2023-03-31T17:04:23.824Z,1.30
2023-03-31T17:06:51.469Z,2.15
2023-03-31T17:09:18.880Z,1.53
2023-03-31T17:11:46.440Z,1.43
2023-03-31T17:14:13.969Z,1.63
2023-03-31T17:16:48.172Z,1.50
2023-03-31T17:19:09.098Z,2.05
2023-03-31T17:21:36.625Z,1.50
2023-03-31T17:24:04.153Z,1.33
2023-03-31T17:26:31.715Z,2.45
2023-03-31T17:28:59.239Z,1.60
2023-03-31T17:31:26.803Z,1.23
2023-03-31T17:33:54.333Z,0.83
2023-03-31T17:36:21.857Z,1.57
2023-03-31T17:38:49.427Z,1.53
2023-03-31T17:41:16.992Z,1.40
2023-03-31T17:43:47.462Z,1.10
2023-03-31T17:46:15.002Z,2.30
2023-03-31T17:48:42.538Z,2.03
2023-03-31T17:51:10.091Z,1.60
2023-03-31T17:53:37.634Z,2.20
2023-03-31T17:56:05.249Z,1.60
2023-03-31T17:58:32.752Z,1.40
2023-03-31T18:01:00.273Z,1.00
2023-03-31T18:03:30.578Z,1.20
2023-03-31T18:05:58.120Z,1.03
2023-03-31T18:08:25.675Z,0.93
2023-03-31T18:10:53.287Z,1.10
2023-03-31T18:13:20.808Z,0.80
2023-03-31T18:15:51.113Z,0.90
2023-03-31T18:18:18.672Z,1.00
2023-03-31T18:20:46.200Z,1.10
2023-03-31T18:23:13.727Z,1.07
2023-03-31T18:25:43.834Z,1.30
2023-03-31T18:28:11.297Z,0.90
2023-03-31T18:30:38.822Z,1.10
2023-03-31T18:33:06.468Z,0.83
2023-03-31T18:35:34.033Z,1.27
2023-03-31T18:38:01.529Z,1.67
2023-03-31T18:40:29.048Z,1.97
2023-03-31T18:42:56.669Z,1.20
2023-03-31T18:45:24.201Z,1.60
2023-03-31T18:47:51.735Z,1.57
2023-03-31T18:50:19.308Z,1.30
2023-03-31T18:52:47.667Z,1.10
2023-03-31T18:55:14.365Z,1.70
2023-03-31T18:57:41.984Z,1.43
2023-03-31T19:00:09.600Z,1.10
2023-03-31T19:02:37.190Z,1.70
2023-03-31T19:05:04.697Z,1.00
2023-03-31T19:07:32.230Z,1.27
2023-03-31T19:09:59.778Z,0.60
2023-03-31T19:12:27.333Z,0.80
2023-03-31T19:14:54.873Z,1.30
2023-03-31T19:17:22.400Z,1.20
2023-03-31T19:19:50.246Z,1.17
2023-03-31T19:22:17.787Z,1.03
2023-03-31T19:24:45.327Z,1.60
2023-03-31T19:27:12.969Z,1.62
2023-03-31T19:29:40.448Z,1.30
2023-03-31T19:32:07.986Z,1.27
2023-03-31T19:34:35.560Z,1.20
2023-03-31T19:37:03.140Z,1.10
2023-03-31T19:39:30.660Z,1.20
2023-03-31T19:41:58.235Z,1.55
2023-03-31T19:44:25.762Z,1.00
2023-03-31T19:46:53.298Z,1.20
2023-03-31T19:49:20.873Z,1.70
2023-03-31T19:51:48.411Z,1.17
2023-03-31T19:54:15.959Z,1.10
2023-03-31T19:56:43.552Z,1.20
2023-03-31T19:59:11.078Z,1.07
2023-03-31T20:01:38.706Z,1.07
2023-03-31T20:04:06.273Z,1.30
2023-03-31T20:06:33.691Z,1.13
2023-03-31T20:09:01.237Z,1.00
2023-03-31T20:11:28.934Z,1.03
2023-03-31T20:13:56.353Z,1.33
2023-03-31T20:16:23.985Z,1.48
2023-03-31T20:18:54.388Z,1.50
2023-03-31T20:21:21.943Z,0.90
2023-03-31T20:23:49.683Z,1.42
2023-03-31T20:26:17.293Z,1.20
2023-03-31T20:28:44.797Z,0.80
2023-03-31T20:31:14.755Z,0.80
2023-03-31T20:33:42.295Z,0.87
2023-03-31T20:36:09.913Z,0.90
2023-03-31T20:38:37.340Z,0.80
2023-03-31T20:41:04.904Z,0.80
2023-03-31T20:43:32.440Z,1.00
2023-03-31T20:46:05.701Z,0.93
2023-03-31T20:48:39.100Z,1.40
2023-03-31T20:51:06.624Z,1.30
2023-03-31T20:53:34.164Z,1.13
2023-03-31T20:56:01.728Z,0.97
2023-03-31T20:58:29.280Z,1.20
2023-03-31T21:00:56.861Z,0.93
2023-03-31T21:03:24.436Z,1.30
2023-03-31T21:05:51.909Z,1.13
2023-03-31T21:08:19.448Z,1.10
2023-03-31T21:10:47.047Z,1.23
2023-03-31T21:13:14.573Z,1.57
2023-03-31T21:15:42.113Z,0.63
2023-03-31T21:18:09.685Z,0.80
2023-03-31T21:20:37.241Z,1.07
2023-03-31T21:23:04.762Z,1.63
2023-03-31T21:25:32.629Z,1.10
2023-03-31T21:27:59.950Z,1.33
2023-03-31T21:30:27.472Z,1.00
2023-03-31T21:32:55.111Z,1.10
2023-03-31T21:35:22.580Z,1.10
2023-03-31T21:37:50.108Z,1.00
2023-03-31T21:40:17.683Z,1.00
2023-03-31T21:42:45.225Z,1.17
2023-03-31T21:45:12.801Z,1.10
2023-03-31T21:47:40.388Z,1.23
2023-03-31T21:50:07.920Z,1.20
2023-03-31T21:52:35.455Z,1.13
2023-03-31T21:55:03.025Z,1.73
2023-03-31T21:57:30.624Z,1.63
2023-03-31T21:59:58.107Z,1.67
2023-03-31T22:02:25.732Z,0.83
2023-03-31T22:04:53.303Z,0.80
2023-03-31T22:07:20.806Z,1.00
2023-03-31T22:09:48.389Z,1.30
2023-03-31T22:12:15.913Z,1.27
2023-03-31T22:14:43.452Z,1.23
2023-03-31T22:17:11.769Z,1.53
2023-03-31T22:19:39.301Z,1.07
2023-03-31T22:22:06.827Z,1.70
2023-03-31T22:24:34.392Z,1.20
2023-03-31T22:27:01.916Z,1.23
2023-03-31T22:29:29.478Z,1.30
2023-03-31T22:31:57.193Z,1.80
2023-03-31T22:34:24.595Z,1.60
2023-03-31T22:36:52.120Z,1.60
2023-03-31T22:39:20.428Z,1.67
2023-03-31T22:41:47.945Z,1.30
2023-03-31T22:44:15.475Z,2.10
2023-03-31T22:46:43.066Z,1.50
2023-03-31T22:49:10.558Z,1.30
2023-03-31T22:51:38.084Z,1.60
2023-03-31T22:54:05.666Z,1.10
2023-03-31T22:56:33.196Z,1.07
2023-03-31T22:59:00.729Z,1.17
2023-03-31T23:01:28.358Z,0.90
2023-03-31T23:03:55.920Z,1.50
2023-03-31T23:06:23.390Z,1.00
2023-03-31T23:08:50.949Z,0.93
2023-03-31T23:11:18.481Z,0.90
2023-03-31T23:13:46.027Z,1.00
2023-03-31T23:16:13.621Z,1.33
2023-03-31T23:18:41.143Z,1.20
2023-03-31T23:21:08.687Z,1.20
2023-03-31T23:23:36.284Z,1.00
2023-03-31T23:26:03.806Z,0.90
2023-03-31T23:28:31.333Z,1.30
2023-03-31T23:30:59.193Z,1.13
2023-03-31T23:33:26.709Z,1.33
2023-03-31T23:35:54.269Z,1.13
2023-03-31T23:38:21.833Z,0.83
2023-03-31T23:40:49.329Z,0.70
2023-03-31T23:43:16.872Z,0.70
2023-03-31T23:45:44.467Z,0.80
2023-03-31T23:48:11.981Z,1.02
2023-03-31T23:50:39.503Z,0.80
2023-03-31T23:53:07.076Z,1.20
2023-03-31T23:55:34.886Z,0.83
2023-03-31T23:58:02.146Z,0.95
